createdAt,value
2019-05-06T00:01:53.986Z,2.80
2019-05-06T00:04:24.730Z,2.73
2019-05-06T00:06:54.807Z,2.67
2019-05-06T00:09:24.122Z,2.63
2019-05-06T00:11:54.277Z,2.56
2019-05-06T00:14:23.669Z,2.52
2019-05-06T00:16:54.554Z,2.49
2019-05-06T00:19:24.674Z,2.45
2019-05-06T00:21:54.082Z,2.39
2019-05-06T00:24:25.099Z,2.37
2019-05-06T00:27:13.996Z,2.35
2019-05-06T00:29:43.864Z,2.32
2019-05-06T00:32:14.918Z,2.28
2019-05-06T00:34:43.685Z,2.26
2019-05-06T00:37:14.473Z,2.23
2019-05-06T00:40:04.513Z,2.20
2019-05-06T00:42:34.931Z,2.18
2019-05-06T00:45:04.627Z,2.17
2019-05-06T00:47:33.968Z,2.15
2019-05-06T00:50:04.247Z,2.14
2019-05-06T00:52:33.999Z,2.12
2019-05-06T00:55:04.162Z,2.12
2019-05-06T00:57:45.210Z,2.09
2019-05-06T01:00:16.851Z,2.06
2019-05-06T01:02:45.420Z,2.05
2019-05-06T01:05:14.484Z,2.02
2019-05-06T01:07:44.107Z,2.00
2019-05-06T01:10:14.298Z,1.98
2019-05-06T01:12:44.665Z,1.96
2019-05-06T01:15:18.376Z,1.94
2019-05-06T01:17:46.891Z,1.90
2019-05-06T01:20:15.755Z,1.87
2019-05-06T01:22:44.361Z,1.86
2019-05-06T01:25:14.224Z,1.84
2019-05-06T01:27:44.434Z,1.84
2019-05-06T01:30:13.814Z,1.81
2019-05-06T01:32:43.584Z,1.81
2019-05-06T01:35:14.100Z,1.78
2019-05-06T01:37:44.431Z,1.77
2019-05-06T01:40:27.047Z,1.76
2019-05-06T01:43:00.216Z,1.75
2019-05-06T01:45:28.823Z,1.74
2019-05-06T01:47:57.398Z,1.74
2019-05-06T01:50:25.978Z,1.73
2019-05-06T01:52:54.635Z,1.74
2019-05-06T01:55:23.888Z,1.74
2019-05-06T01:57:54.531Z,1.74
2019-05-06T02:00:23.687Z,1.73
2019-05-06T02:02:54.595Z,1.74
2019-05-06T02:05:24.233Z,1.73
2019-05-06T02:07:54.891Z,1.70
2019-05-06T02:10:23.859Z,1.69
2019-05-06T02:12:54.116Z,1.66
2019-05-06T02:15:23.884Z,1.65
2019-05-06T02:17:54.991Z,1.62
2019-05-06T02:20:24.653Z,1.60
2019-05-06T02:22:54.914Z,1.57
2019-05-06T02:25:25.121Z,1.56
2019-05-06T02:27:54.246Z,1.53
2019-05-06T02:30:36.348Z,1.52
2019-05-06T02:33:11.279Z,1.50
2019-05-06T02:35:45.425Z,1.49
2019-05-06T02:38:32.654Z,1.47
2019-05-06T02:40:55.580Z,1.44
2019-05-06T02:43:24.140Z,1.43
2019-05-06T02:45:53.232Z,1.40
2019-05-06T02:48:29.670Z,1.39
2019-05-06T02:50:59.877Z,1.38
2019-05-06T02:53:28.551Z,1.39
2019-05-06T02:55:57.147Z,1.40
2019-05-06T02:58:25.721Z,1.41
2019-05-06T03:00:54.301Z,1.43
2019-05-06T03:03:23.378Z,1.45
2019-05-06T03:05:53.205Z,1.47
2019-05-06T03:08:23.657Z,1.48
2019-05-06T03:10:53.564Z,1.49
2019-05-06T03:13:23.609Z,1.51
2019-05-06T03:15:54.076Z,1.54
2019-05-06T03:18:23.586Z,1.62
2019-05-06T03:20:54.099Z,1.71
2019-05-06T03:23:24.327Z,1.82
2019-05-06T03:25:53.413Z,1.91
2019-05-06T03:28:22.620Z,2.00
2019-05-06T03:30:55.903Z,2.10
2019-05-06T03:33:44.607Z,2.20
2019-05-06T03:36:06.113Z,2.32
2019-05-06T03:38:22.999Z,2.41
2019-05-06T03:40:53.770Z,2.48
2019-05-06T03:43:23.263Z,2.56
2019-05-06T03:45:59.806Z,2.64
2019-05-06T03:48:33.086Z,2.71
2019-05-06T03:51:00.344Z,2.78
2019-05-06T03:53:33.398Z,2.87
2019-05-06T03:56:03.344Z,2.95
2019-05-06T03:58:34.705Z,3.04
2019-05-06T04:01:03.832Z,3.12
2019-05-06T04:03:46.534Z,3.18
2019-05-06T04:06:05.605Z,3.25
2019-05-06T04:08:35.173Z,3.29
2019-05-06T04:11:03.857Z,3.33
2019-05-06T04:13:33.363Z,3.36
2019-05-06T04:16:04.075Z,3.40
2019-05-06T04:18:34.428Z,3.45
2019-05-06T04:21:23.691Z,3.49
2019-05-06T04:24:04.845Z,3.53
2019-05-06T04:26:35.402Z,3.58
2019-05-06T04:29:04.245Z,3.62
2019-05-06T04:31:33.693Z,3.65
2019-05-06T04:34:12.890Z,3.68
2019-05-06T04:36:33.833Z,3.70
2019-05-06T04:39:04.117Z,3.74
2019-05-06T04:41:34.066Z,3.76
2019-05-06T04:44:03.427Z,3.80
2019-05-06T04:46:34.867Z,3.86
2019-05-06T04:49:04.000Z,3.93
2019-05-06T04:51:37.010Z,4.00
2019-05-06T04:54:04.843Z,4.06
2019-05-06T04:56:34.516Z,4.12
2019-05-06T04:59:06.282Z,4.17
2019-05-06T05:01:34.357Z,4.24
2019-05-06T05:04:03.714Z,4.30
2019-05-06T05:06:32.935Z,4.36
2019-05-06T05:09:02.781Z,4.42
2019-05-06T05:11:36.455Z,4.47
2019-05-06T05:14:06.673Z,4.55
2019-05-06T05:16:39.608Z,4.62
2019-05-06T05:19:12.824Z,4.70
2019-05-06T05:21:42.874Z,4.76
2019-05-06T05:24:12.053Z,4.81
2019-05-06T05:26:45.108Z,4.87
2019-05-06T05:29:12.391Z,4.93
2019-05-06T05:31:43.543Z,5.00
2019-05-06T05:34:12.744Z,5.06
2019-05-06T05:36:42.622Z,5.12
2019-05-06T05:39:12.517Z,5.16
2019-05-06T05:41:42.901Z,5.23
2019-05-06T05:44:13.507Z,5.27
2019-05-06T05:46:43.824Z,5.31
2019-05-06T05:49:24.602Z,5.37
2019-05-06T05:51:53.654Z,5.45
2019-05-06T05:54:23.125Z,5.52
2019-05-06T05:56:52.927Z,5.59
2019-05-06T05:59:23.152Z,5.67
2019-05-06T06:01:53.082Z,5.78
2019-05-06T06:04:22.490Z,5.89
2019-05-06T06:06:51.999Z,6.02
2019-05-06T06:09:22.620Z,6.15
2019-05-06T06:11:53.676Z,6.26
2019-05-06T06:14:43.724Z,6.36
2019-05-06T06:17:26.245Z,6.44
2019-05-06T06:19:59.671Z,6.53
2019-05-06T06:22:30.018Z,6.62
2019-05-06T06:24:58.659Z,6.74
2019-05-06T06:27:28.862Z,6.84
2019-05-06T06:29:57.537Z,6.95
2019-05-06T06:32:27.756Z,7.05
2019-05-06T06:35:11.131Z,7.20
2019-05-06T06:37:38.959Z,7.33
2019-05-06T06:40:10.073Z,7.51
2019-05-06T06:42:38.662Z,7.65
2019-05-06T06:45:07.711Z,7.83
2019-05-06T06:47:36.486Z,7.98
2019-05-06T06:50:05.357Z,8.15
2019-05-06T06:52:33.923Z,8.36
2019-05-06T06:55:02.735Z,8.65
2019-05-06T06:57:38.678Z,8.90
2019-05-06T07:00:22.279Z,9.15
2019-05-06T07:03:04.654Z,9.46
2019-05-06T07:05:34.874Z,9.67
2019-05-06T07:08:03.619Z,9.76
2019-05-06T07:10:43.997Z,9.95
2019-05-06T07:13:13.738Z,10.05
2019-05-06T07:15:42.749Z,10.02
2019-05-06T07:18:13.517Z,9.93
2019-05-06T07:20:52.672Z,9.84
2019-05-06T07:23:32.787Z,9.82
2019-05-06T07:26:03.043Z,9.81
2019-05-06T07:28:32.678Z,10.03
2019-05-06T07:31:17.578Z,10.35
2019-05-06T07:33:33.586Z,11.20
2019-05-06T07:36:02.339Z,12.16
2019-05-06T07:38:32.631Z,13.08
2019-05-06T07:41:04.544Z,13.97
2019-05-06T07:43:35.006Z,14.73
2019-05-06T07:46:08.887Z,15.25
2019-05-06T07:48:37.489Z,15.55
2019-05-06T07:51:06.072Z,15.70
2019-05-06T07:53:34.695Z,15.66
2019-05-06T07:56:03.742Z,15.16
2019-05-06T07:58:32.543Z,14.75
2019-05-06T08:01:02.605Z,15.04
2019-05-06T08:03:32.981Z,15.18
2019-05-06T08:06:02.742Z,15.02
2019-05-06T08:08:33.657Z,15.09
2019-05-06T08:11:02.716Z,14.83
2019-05-06T08:13:32.301Z,14.62
2019-05-06T08:16:02.269Z,14.41
2019-05-06T08:18:32.982Z,14.74
2019-05-06T08:21:02.926Z,14.55
2019-05-06T08:23:35.902Z,13.98
2019-05-06T08:26:12.546Z,13.22
2019-05-06T08:28:41.036Z,13.01
2019-05-06T08:31:05.362Z,12.98
2019-05-06T08:33:33.999Z,13.35
2019-05-06T08:36:11.476Z,13.98
2019-05-06T08:38:53.204Z,14.43
2019-05-06T08:41:22.749Z,14.87
2019-05-06T08:43:52.844Z,15.54
2019-05-06T08:46:23.488Z,16.10
2019-05-06T08:48:52.613Z,16.51
2019-05-06T08:51:26.014Z,16.75
2019-05-06T08:53:56.253Z,16.72
2019-05-06T08:56:25.025Z,16.76
2019-05-06T08:58:53.590Z,17.06
2019-05-06T09:01:23.833Z,17.29
2019-05-06T09:04:06.408Z,17.33
2019-05-06T09:06:29.724Z,17.30
2019-05-06T09:08:56.577Z,17.34
2019-05-06T09:11:25.692Z,17.69
2019-05-06T09:13:53.779Z,17.61
2019-05-06T09:16:22.538Z,17.80
2019-05-06T09:18:53.241Z,17.84
2019-05-06T09:21:22.625Z,17.66
2019-05-06T09:23:53.191Z,17.70
2019-05-06T09:26:23.286Z,17.63
2019-05-06T09:28:53.574Z,17.44
2019-05-06T09:31:23.846Z,16.94
2019-05-06T09:33:57.149Z,16.78
2019-05-06T09:36:39.822Z,17.06
2019-05-06T09:38:56.060Z,16.93
2019-05-06T09:41:24.634Z,16.56
2019-05-06T09:43:53.214Z,16.55
2019-05-06T09:46:23.069Z,16.45
2019-05-06T09:49:09.624Z,16.60
2019-05-06T09:51:38.287Z,16.84
2019-05-06T09:54:24.798Z,16.92
2019-05-06T09:56:58.386Z,16.56
2019-05-06T09:59:27.083Z,15.89
2019-05-06T10:01:55.720Z,15.99
2019-05-06T10:04:24.314Z,16.19
2019-05-06T10:06:57.195Z,16.35
2019-05-06T10:09:24.946Z,15.73
2019-05-06T10:11:53.755Z,14.94
2019-05-06T10:14:23.407Z,14.29
2019-05-06T10:16:52.559Z,14.15
2019-05-06T10:19:22.575Z,14.54
2019-05-06T10:21:53.038Z,15.20
2019-05-06T10:24:21.892Z,15.81
2019-05-06T10:26:52.453Z,16.10
2019-05-06T10:29:25.434Z,16.29
2019-05-06T10:31:58.733Z,16.68
2019-05-06T10:34:27.315Z,16.82
2019-05-06T10:37:12.718Z,16.28
2019-05-06T10:39:35.698Z,15.64
2019-05-06T10:42:13.463Z,15.73
2019-05-06T10:44:48.023Z,15.97
2019-05-06T10:47:16.655Z,16.30
2019-05-06T10:49:45.217Z,16.69
2019-05-06T10:52:15.422Z,16.70
2019-05-06T10:54:44.104Z,16.37
2019-05-06T10:57:14.435Z,15.83
2019-05-06T10:59:43.013Z,15.43
2019-05-06T11:02:29.410Z,14.98
2019-05-06T11:04:58.075Z,14.75
2019-05-06T11:07:31.405Z,14.51
2019-05-06T11:09:56.927Z,14.35
2019-05-06T11:12:25.503Z,14.26
2019-05-06T11:14:55.748Z,14.16
2019-05-06T11:17:24.552Z,13.88
2019-05-06T11:19:53.374Z,13.65
2019-05-06T11:22:24.637Z,13.42
2019-05-06T11:24:52.341Z,13.30
2019-05-06T11:27:28.762Z,13.10
2019-05-06T11:29:53.147Z,13.05
2019-05-06T11:32:41.174Z,12.96
2019-05-06T11:35:16.183Z,13.14
2019-05-06T11:37:51.959Z,13.40
2019-05-06T11:40:19.768Z,13.52
2019-05-06T11:42:48.282Z,13.63
2019-05-06T11:45:16.973Z,13.87
2019-05-06T11:47:45.599Z,14.05
2019-05-06T11:50:14.549Z,14.25
2019-05-06T11:52:43.619Z,14.30
2019-05-06T11:55:27.543Z,14.21
2019-05-06T11:57:44.874Z,14.14
2019-05-06T12:00:15.586Z,14.15
2019-05-06T12:02:48.013Z,14.25
2019-05-06T12:05:14.973Z,14.21
2019-05-06T12:08:00.397Z,14.13
2019-05-06T12:10:14.186Z,14.12
2019-05-06T12:12:42.765Z,13.94
2019-05-06T12:15:12.552Z,13.48
2019-05-06T12:17:42.207Z,13.20
2019-05-06T12:20:13.142Z,12.98
2019-05-06T12:22:42.447Z,12.93
2019-05-06T12:25:15.096Z,12.87
2019-05-06T12:27:44.624Z,12.91
2019-05-06T12:30:23.176Z,13.02
2019-05-06T12:33:03.199Z,12.93
2019-05-06T12:35:32.865Z,12.78
2019-05-06T12:38:06.804Z,12.68
2019-05-06T12:40:33.399Z,12.52
2019-05-06T12:43:22.510Z,12.33
2019-05-06T12:45:53.103Z,12.14
2019-05-06T12:48:23.511Z,11.99
2019-05-06T12:50:52.547Z,11.98
2019-05-06T12:53:23.150Z,12.27
2019-05-06T12:55:52.058Z,12.91
2019-05-06T12:58:23.251Z,13.56
2019-05-06T13:00:53.968Z,14.10
2019-05-06T13:03:23.433Z,14.63
2019-05-06T13:05:52.204Z,14.81
2019-05-06T13:08:27.364Z,14.61
2019-05-06T13:10:52.592Z,14.70
2019-05-06T13:13:22.466Z,14.86
2019-05-06T13:15:52.790Z,14.98
2019-05-06T13:18:23.177Z,14.88
2019-05-06T13:20:52.791Z,15.03
2019-05-06T13:23:38.228Z,15.14
2019-05-06T13:26:06.835Z,15.12
2019-05-06T13:28:37.105Z,15.17
2019-05-06T13:31:17.313Z,15.42
2019-05-06T13:33:47.292Z,15.44
2019-05-06T13:36:16.076Z,15.29
2019-05-06T13:38:44.688Z,15.22
2019-05-06T13:41:13.268Z,15.04
2019-05-06T13:43:43.772Z,14.86
2019-05-06T13:46:17.006Z,14.72
2019-05-06T13:49:02.917Z,14.56
2019-05-06T13:51:45.826Z,14.25
2019-05-06T13:54:16.101Z,13.84
2019-05-06T13:56:44.894Z,13.59
2019-05-06T13:59:13.624Z,13.46
2019-05-06T14:01:44.332Z,13.47
2019-05-06T14:04:14.540Z,13.55
2019-05-06T14:06:43.432Z,13.66
2019-05-06T14:09:27.945Z,13.68
2019-05-06T14:11:42.522Z,13.82
2019-05-06T14:14:12.557Z,14.12
2019-05-06T14:16:42.662Z,14.17
2019-05-06T14:19:13.173Z,13.95
2019-05-06T14:21:43.172Z,13.60
2019-05-06T14:24:13.220Z,13.41
2019-05-06T14:26:58.195Z,13.24
2019-05-06T14:29:33.959Z,13.31
2019-05-06T14:32:02.903Z,13.57
2019-05-06T14:34:32.440Z,13.64
2019-05-06T14:37:01.416Z,13.56
2019-05-06T14:39:49.150Z,13.65
2019-05-06T14:42:04.754Z,13.66
2019-05-06T14:44:33.325Z,13.61
2019-05-06T14:47:06.379Z,13.58
2019-05-06T14:49:34.960Z,13.45
2019-05-06T14:52:03.622Z,13.36
2019-05-06T14:54:33.198Z,13.31
2019-05-06T14:57:06.534Z,13.39
2019-05-06T14:59:35.253Z,13.65
2019-05-06T15:02:03.840Z,13.83
2019-05-06T15:04:32.735Z,13.97
2019-05-06T15:07:02.120Z,13.85
2019-05-06T15:09:32.912Z,13.80
2019-05-06T15:12:02.366Z,13.67
2019-05-06T15:14:33.075Z,13.48
2019-05-06T15:17:02.253Z,13.32
2019-05-06T15:19:31.072Z,13.15
2019-05-06T15:21:59.676Z,12.93
2019-05-06T15:24:28.283Z,12.75
2019-05-06T15:26:56.859Z,12.58
2019-05-06T15:29:25.468Z,12.45
2019-05-06T15:31:55.735Z,12.32
2019-05-06T15:34:25.979Z,12.16
2019-05-06T15:36:56.169Z,12.12
2019-05-06T15:39:39.264Z,12.07
2019-05-06T15:42:07.889Z,12.02
2019-05-06T15:44:36.697Z,12.03
2019-05-06T15:47:05.300Z,12.05
2019-05-06T15:49:33.880Z,12.06
2019-05-06T15:52:03.612Z,12.10
2019-05-06T15:54:32.404Z,12.08
2019-05-06T15:57:00.889Z,11.98
2019-05-06T15:59:33.296Z,11.93
2019-05-06T16:02:01.961Z,11.87
2019-05-06T16:04:32.505Z,11.79
2019-05-06T16:07:02.863Z,11.72
2019-05-06T16:09:32.824Z,11.60
2019-05-06T16:12:03.107Z,11.51
2019-05-06T16:14:34.107Z,11.49
2019-05-06T16:17:02.078Z,11.44
2019-05-06T16:19:33.069Z,11.34
2019-05-06T16:22:03.922Z,11.21
2019-05-06T16:24:35.184Z,11.14
2019-05-06T16:27:03.537Z,11.09
2019-05-06T16:29:37.668Z,11.02
2019-05-06T16:32:09.998Z,10.91
2019-05-06T16:34:38.568Z,10.84
2019-05-06T16:37:07.176Z,10.76
2019-05-06T16:39:35.759Z,10.69
2019-05-06T16:42:04.355Z,10.60
2019-05-06T16:44:32.932Z,10.51
2019-05-06T16:47:02.948Z,10.47
2019-05-06T16:49:33.156Z,10.41
2019-05-06T16:52:02.662Z,10.33
2019-05-06T16:54:34.576Z,10.28
2019-05-06T16:57:15.980Z,10.22
2019-05-06T16:59:44.587Z,10.18
2019-05-06T17:02:14.963Z,10.13
2019-05-06T17:04:45.173Z,10.10
2019-05-06T17:07:13.776Z,10.08
2019-05-06T17:09:42.982Z,10.11
2019-05-06T17:12:12.786Z,10.11
2019-05-06T17:14:42.856Z,10.10
2019-05-06T17:17:11.548Z,10.12
2019-05-06T17:19:42.048Z,10.15
2019-05-06T17:22:12.353Z,10.17
2019-05-06T17:24:42.212Z,10.17
2019-05-06T17:27:12.071Z,10.19
2019-05-06T17:29:48.368Z,10.21
2019-05-06T17:32:32.829Z,10.24
2019-05-06T17:35:02.613Z,10.23
2019-05-06T17:37:52.675Z,10.21
2019-05-06T17:40:23.147Z,10.16
2019-05-06T17:42:53.305Z,10.12
2019-05-06T17:45:40.251Z,10.11
2019-05-06T17:48:12.690Z,10.07
2019-05-06T17:50:42.064Z,10.03
2019-05-06T17:53:12.294Z,9.94
2019-05-06T17:55:43.145Z,9.88
2019-05-06T17:58:12.970Z,9.85
2019-05-06T18:00:42.904Z,9.78
2019-05-06T18:03:11.771Z,9.72
2019-05-06T18:05:42.185Z,9.63
2019-05-06T18:08:12.780Z,9.58
2019-05-06T18:10:42.663Z,9.54
2019-05-06T18:13:12.562Z,9.53
2019-05-06T18:15:43.066Z,9.44
2019-05-06T18:18:13.008Z,9.42
2019-05-06T18:20:42.723Z,9.38
2019-05-06T18:23:12.899Z,9.35
2019-05-06T18:25:43.031Z,9.33
2019-05-06T18:28:12.369Z,9.31
2019-05-06T18:30:41.433Z,9.31
2019-05-06T18:33:10.120Z,9.25
2019-05-06T18:35:38.905Z,9.25
2019-05-06T18:38:07.803Z,9.23
2019-05-06T18:40:36.696Z,9.20
2019-05-06T18:43:06.116Z,9.18
2019-05-06T18:45:36.157Z,9.13
2019-05-06T18:48:05.397Z,9.07
2019-05-06T18:50:34.013Z,9.03
2019-05-06T18:53:03.278Z,8.98
2019-05-06T18:55:33.322Z,8.94
2019-05-06T18:58:02.820Z,8.90
2019-05-06T19:00:32.094Z,8.87
2019-05-06T19:03:02.647Z,8.84
2019-05-06T19:05:42.721Z,8.80
2019-05-06T19:08:12.730Z,8.77
2019-05-06T19:10:42.461Z,8.74
2019-05-06T19:13:12.649Z,8.72
2019-05-06T19:15:41.561Z,8.70
2019-05-06T19:18:12.803Z,8.68
2019-05-06T19:20:42.467Z,8.66
2019-05-06T19:23:13.054Z,8.64
2019-05-06T19:25:42.863Z,8.63
2019-05-06T19:28:14.200Z,8.60
2019-05-06T19:30:43.341Z,8.58
2019-05-06T19:33:12.418Z,8.56
2019-05-06T19:35:42.828Z,8.54
2019-05-06T19:38:12.486Z,8.52
2019-05-06T19:40:41.429Z,8.51
2019-05-06T19:43:12.266Z,8.48
2019-05-06T19:45:42.265Z,8.49
2019-05-06T19:48:13.381Z,8.47
2019-05-06T19:50:42.586Z,8.44
2019-05-06T19:53:12.424Z,8.43
2019-05-06T19:55:45.433Z,8.43
2019-05-06T19:58:12.986Z,8.42
2019-05-06T20:00:42.052Z,8.43
2019-05-06T20:03:12.348Z,8.46
2019-05-06T20:05:55.053Z,8.47
2019-05-06T20:08:28.808Z,8.47
2019-05-06T20:10:59.303Z,8.48
2019-05-06T20:13:27.988Z,8.49
2019-05-06T20:15:56.797Z,8.51
2019-05-06T20:18:25.692Z,8.51
2019-05-06T20:20:54.947Z,8.51
2019-05-06T20:23:24.495Z,8.51
2019-05-06T20:25:53.256Z,8.50
2019-05-06T20:28:22.846Z,8.50
2019-05-06T20:30:52.881Z,8.50
2019-05-06T20:33:22.079Z,8.50
2019-05-06T20:35:52.551Z,8.49
2019-05-06T20:38:23.255Z,8.37
2019-05-06T20:40:51.627Z,8.12
2019-05-06T20:43:23.772Z,7.90
2019-05-06T20:45:52.195Z,7.66
2019-05-06T20:48:23.326Z,7.46
2019-05-06T20:50:52.389Z,7.28
2019-05-06T20:53:22.621Z,7.13
2019-05-06T20:55:53.203Z,7.02
2019-05-06T20:58:22.942Z,6.95
2019-05-06T21:00:52.224Z,6.91
2019-05-06T21:03:22.202Z,6.90
2019-05-06T21:05:50.967Z,6.86
2019-05-06T21:08:21.944Z,6.85
2019-05-06T21:10:52.715Z,6.83
2019-05-06T21:13:29.562Z,6.79
2019-05-06T21:15:50.568Z,6.77
2019-05-06T21:18:19.153Z,6.77
2019-05-06T21:20:47.728Z,6.76
2019-05-06T21:23:16.305Z,6.74
2019-05-06T21:25:44.884Z,6.73
2019-05-06T21:28:13.455Z,6.71
2019-05-06T21:30:42.928Z,6.69
2019-05-06T21:33:12.425Z,6.63
2019-05-06T21:35:42.405Z,6.62
2019-05-06T21:38:12.108Z,6.61
2019-05-06T21:40:43.119Z,6.61
2019-05-06T21:43:13.033Z,6.61
2019-05-06T21:45:42.501Z,6.61
2019-05-06T21:48:13.391Z,6.60
2019-05-06T21:50:42.632Z,6.61
2019-05-06T21:53:14.456Z,6.62
2019-05-06T21:55:41.728Z,6.61
2019-05-06T21:58:12.427Z,6.60
2019-05-06T22:00:43.620Z,6.61
2019-05-06T22:03:13.363Z,6.61
2019-05-06T22:05:42.242Z,6.59
2019-05-06T22:08:12.886Z,6.57
2019-05-06T22:10:42.213Z,6.58
2019-05-06T22:13:14.327Z,6.57
2019-05-06T22:15:42.093Z,6.58
2019-05-06T22:18:12.497Z,6.58
2019-05-06T22:20:59.389Z,6.57
2019-05-06T22:23:29.605Z,6.56
2019-05-06T22:26:10.855Z,6.53
2019-05-06T22:28:28.510Z,6.51
2019-05-06T22:30:57.084Z,6.51
2019-05-06T22:33:25.638Z,6.50
2019-05-06T22:35:57.182Z,6.48
2019-05-06T22:38:25.681Z,6.47
2019-05-06T22:40:54.254Z,6.47
2019-05-06T22:43:22.831Z,6.47
2019-05-06T22:45:53.301Z,6.46
2019-05-06T22:48:22.267Z,6.47
2019-05-06T22:50:52.927Z,6.46
2019-05-06T22:53:22.167Z,6.47
2019-05-06T22:55:51.960Z,6.46
2019-05-06T22:58:22.657Z,6.48
2019-05-06T23:00:53.746Z,6.51
2019-05-06T23:03:24.180Z,6.53
2019-05-06T23:05:52.779Z,6.56
2019-05-06T23:08:21.412Z,6.57
2019-05-06T23:10:50.166Z,6.59
2019-05-06T23:13:18.741Z,6.61
2019-05-06T23:15:47.333Z,6.63
2019-05-06T23:18:15.900Z,6.65
2019-05-06T23:20:44.510Z,6.64
2019-05-06T23:23:13.087Z,6.64
2019-05-06T23:25:43.566Z,6.64
2019-05-06T23:28:12.017Z,6.62
2019-05-06T23:30:42.779Z,6.63
2019-05-06T23:33:11.770Z,6.63
2019-05-06T23:35:43.713Z,6.63
2019-05-06T23:38:47.880Z,6.64
2019-05-06T23:41:52.940Z,6.64
2019-05-06T23:44:57.664Z,6.62
2019-05-06T23:48:02.664Z,6.59
2019-05-06T23:51:07.597Z,6.52
2019-05-06T23:54:12.772Z,6.53
2019-05-06T23:56:45.882Z,6.50
2019-05-06T23:59:18.637Z,6.47
